Terminal Aerodrome Forecast
Issued by NWS

Current Version | Previous Version | Text Only | Print | Product List | Glossary Off
Versions: 1 2 3 4 5 6 7 8 9 10 11 12 13 14 15 16 17

000
FTUS41 KRNK 290540
TAFLWB
TAF
KLWB 290540Z 2906/3006 21004KT P6SM SCT080 OVC150
     FM290900 24006KT P6SM -SHRA BKN050 OVC080
      TEMPO 2910/2914 3SM -SHRA BR BKN030 OVC050
     FM291400 28008G16KT P6SM -RA BKN020 OVC030
     FM291800 30010KT P6SM BKN025
     FM292100 30005KT P6SM SCT030=

USA.gov is the U.S. government's official web portal to all federal, state and local government web resources and services.